sensor_id;sensor_type;location;lat;lon;timestamp;pressure;altitude;pressure_sealevel;temperature;humidity
15050;BME280;7622;42.724;23.250;2022-08-19T00:01:13;94464.91;;;22.80;100.00
15050;BME280;7622;42.724;23.250;2022-08-19T00:03:40;94464.38;;;22.90;100.00
15050;BME280;7622;42.724;23.250;2022-08-19T00:06:07;94470.06;;;22.75;100.00
15050;BME280;7622;42.724;23.250;2022-08-19T00:08:35;94472.41;;;22.83;100.00
15050;BME280;7622;42.724;23.250;2022-08-19T00:11:02;94473.88;;;22.79;100.00
15050;BME280;7622;42.724;23.250;2022-08-19T00:13:30;94477.25;;;22.86;100.00
15050;BME280;7622;42.724;23.250;2022-08-19T00:15:56;94483.59;;;22.85;100.00
15050;BME280;7622;42.724;23.250;2022-08-19T00:18:26;94485.03;;;22.99;100.00
15050;BME280;7622;42.724;23.250;2022-08-19T00:20:53;94480.88;;;23.03;100.00
15050;BME280;7622;42.724;23.250;2022-08-19T00:23:20;94480.59;;;23.11;100.00
15050;BME280;7622;42.724;23.250;2022-08-19T00:25:47;94494.59;;;23.00;100.00
15050;BME280;7622;42.724;23.250;2022-08-19T00:28:14;94492.38;;;22.97;100.00
15050;BME280;7622;42.724;23.250;2022-08-19T00:30:42;94487.47;;;23.01;100.00
15050;BME280;7622;42.724;23.250;2022-08-19T00:33:09;94484.53;;;22.72;100.00
15050;BME280;7622;42.724;23.250;2022-08-19T00:35:36;94483.06;;;22.76;100.00
15050;BME280;7622;42.724;23.250;2022-08-19T00:38:04;94479.47;;;22.53;100.00
15050;BME280;7622;42.724;23.250;2022-08-19T00:40:32;94476.53;;;22.61;100.00
15050;BME280;7622;42.724;23.250;2022-08-19T00:42:59;94471.91;;;22.74;100.00
15050;BME280;7622;42.724;23.250;2022-08-19T00:45:27;94470.06;;;22.38;100.00
15050;BME280;7622;42.724;23.250;2022-08-19T00:47:57;94479.78;;;22.26;100.00
15050;BME280;7622;42.724;23.250;2022-08-19T00:50:28;94474.47;;;22.26;100.00
15050;BME280;7622;42.724;23.250;2022-08-19T00:52:55;94478.56;;;22.22;100.00
15050;BME280;7622;42.724;23.250;2022-08-19T00:55:24;94470.28;;;22.19;100.00
15050;BME280;7622;42.724;23.250;2022-08-19T00:57:56;94473.88;;;22.24;100.00
15050;BME280;7622;42.724;23.250;2022-08-19T01:00:26;94479.44;;;22.34;100.00
15050;BME280;7622;42.724;23.250;2022-08-19T01:02:54;94466.59;;;22.38;100.00
15050;BME280;7622;42.724;23.250;2022-08-19T01:05:25;94468.16;;;22.46;100.00
15050;BME280;7622;42.724;23.250;2022-08-19T01:07:54;94478.44;;;22.35;100.00
15050;BME280;7622;42.724;23.250;2022-08-19T01:10:25;94478.88;;;22.32;100.00
15050;BME280;7622;42.724;23.250;2022-08-19T01:12:52;94472.84;;;22.25;100.00
15050;BME280;7622;42.724;23.250;2022-08-19T01:15:25;94481.44;;;22.21;100.00
15050;BME280;7622;42.724;23.250;2022-08-19T01:17:54;94474.97;;;22.17;100.00
15050;BME280;7622;42.724;23.250;2022-08-19T01:20:23;94448.75;;;21.90;100.00
15050;BME280;7622;42.724;23.250;2022-08-19T01:22:53;94476.44;;;22.13;100.00
15050;BME280;7622;42.724;23.250;2022-08-19T01:25:24;94433.88;;;21.71;100.00
15050;BME280;7622;42.724;23.250;2022-08-19T01:27:53;94466.00;;;21.93;100.00
15050;BME280;7622;42.724;23.250;2022-08-19T01:30:23;94467.97;;;22.04;100.00
15050;BME280;7622;42.724;23.250;2022-08-19T01:32:51;94468.13;;;22.09;100.00
15050;BME280;7622;42.724;23.250;2022-08-19T01:35:19;94469.59;;;22.23;100.00
15050;BME280;7622;42.724;23.250;2022-08-19T01:37:53;94466.94;;;22.05;100.00
15050;BME280;7622;42.724;23.250;2022-08-19T01:40:22;94470.41;;;22.06;100.00
15050;BME280;7622;42.724;23.250;2022-08-19T01:42:50;94474.44;;;22.08;100.00
15050;BME280;7622;42.724;23.250;2022-08-19T01:45:18;94477.81;;;21.97;100.00
15050;BME280;7622;42.724;23.250;2022-08-19T01:47:46;94478.66;;;21.91;100.00
15050;BME280;7622;42.724;23.250;2022-08-19T01:50:13;94476.44;;;21.88;100.00
15050;BME280;7622;42.724;23.250;2022-08-19T01:52:42;94480.09;;;21.87;100.00
15050;BME280;7622;42.724;23.250;2022-08-19T01:55:13;94477.19;;;21.95;100.00
15050;BME280;7622;42.724;23.250;2022-08-19T01:57:42;94488.22;;;21.92;100.00
15050;BME280;7622;42.724;23.250;2022-08-19T02:00:13;94457.00;;;21.76;100.00
15050;BME280;7622;42.724;23.250;2022-08-19T02:02:41;94477.44;;;21.87;100.00
15050;BME280;7622;42.724;23.250;2022-08-19T02:05:08;94487.53;;;21.72;100.00
15050;BME280;7622;42.724;23.250;2022-08-19T02:07:35;94484.06;;;21.78;100.00
15050;BME280;7622;42.724;23.250;2022-08-19T02:10:04;94474.56;;;21.70;100.00
15050;BME280;7622;42.724;23.250;2022-08-19T02:12:32;94480.66;;;21.71;100.00
15050;BME280;7622;42.724;23.250;2022-08-19T02:15:00;94474.72;;;21.50;100.00
15050;BME280;7622;42.724;23.250;2022-08-19T02:17:27;94476.84;;;21.35;100.00
15050;BME280;7622;42.724;23.250;2022-08-19T02:19:55;94474.38;;;21.09;100.00
15050;BME280;7622;42.724;23.250;2022-08-19T02:22:21;94473.72;;;21.13;100.00
15050;BME280;7622;42.724;23.250;2022-08-19T02:24:49;94475.75;;;21.18;100.00
15050;BME280;7622;42.724;23.250;2022-08-19T02:27:16;94477.00;;;21.09;100.00
15050;BME280;7622;42.724;23.250;2022-08-19T02:29:45;94451.09;;;20.93;100.00
15050;BME280;7622;42.724;23.250;2022-08-19T02:32:12;94483.00;;;21.29;100.00
15050;BME280;7622;42.724;23.250;2022-08-19T02:34:39;94480.94;;;21.31;100.00
15050;BME280;7622;42.724;23.250;2022-08-19T02:37:06;94481.78;;;21.25;100.00
15050;BME280;7622;42.724;23.250;2022-08-19T02:39:53;94486.31;;;21.11;100.00
15050;BME280;7622;42.724;23.250;2022-08-19T02:42:19;94471.72;;;21.09;100.00
15050;BME280;7622;42.724;23.250;2022-08-19T02:44:47;94481.84;;;21.18;100.00
15050;BME280;7622;42.724;23.250;2022-08-19T02:47:14;94472.19;;;21.31;100.00
15050;BME280;7622;42.724;23.250;2022-08-19T02:49:41;94479.34;;;21.23;100.00
15050;BME280;7622;42.724;23.250;2022-08-19T02:52:08;94478.59;;;21.16;100.00
15050;BME280;7622;42.724;23.250;2022-08-19T02:54:36;94475.38;;;21.08;100.00
15050;BME280;7622;42.724;23.250;2022-08-19T02:57:03;94479.53;;;20.91;100.00
15050;BME280;7622;42.724;23.250;2022-08-19T02:59:30;94490.06;;;20.97;100.00
15050;BME280;7622;42.724;23.250;2022-08-19T03:01:59;94486.06;;;20.88;100.00
15050;BME280;7622;42.724;23.250;2022-08-19T03:04:26;94474.53;;;20.69;100.00
15050;BME280;7622;42.724;23.250;2022-08-19T03:06:54;94480.63;;;20.70;100.00
15050;BME280;7622;42.724;23.250;2022-08-19T03:09:20;94472.34;;;20.66;100.00
15050;BME280;7622;42.724;23.250;2022-08-19T03:11:47;94479.28;;;20.54;100.00
15050;BME280;7622;42.724;23.250;2022-08-19T03:14:15;94468.22;;;20.77;100.00
15050;BME280;7622;42.724;23.250;2022-08-19T03:16:45;94475.88;;;20.92;100.00
15050;BME280;7622;42.724;23.250;2022-08-19T03:19:15;94469.25;;;20.69;100.00
15050;BME280;7622;42.724;23.250;2022-08-19T03:21:43;94475.59;;;20.62;100.00
15050;BME280;7622;42.724;23.250;2022-08-19T03:24:11;94482.84;;;20.79;100.00
15050;BME280;7622;42.724;23.250;2022-08-19T03:26:39;94478.13;;;20.81;100.00
15050;BME280;7622;42.724;23.250;2022-08-19T03:29:08;94482.47;;;20.69;100.00
15050;BME280;7622;42.724;23.250;2022-08-19T03:31:35;94486.31;;;20.73;100.00
15050;BME280;7622;42.724;23.250;2022-08-19T03:34:03;94476.81;;;20.66;100.00
15050;BME280;7622;42.724;23.250;2022-08-19T03:36:31;94491.84;;;20.65;100.00
15050;BME280;7622;42.724;23.250;2022-08-19T03:38:59;94491.16;;;20.76;100.00
15050;BME280;7622;42.724;23.250;2022-08-19T03:41:29;94488.94;;;20.80;100.00
15050;BME280;7622;42.724;23.250;2022-08-19T03:43:57;94493.88;;;20.63;100.00
15050;BME280;7622;42.724;23.250;2022-08-19T03:46:26;94500.38;;;20.54;100.00
15050;BME280;7622;42.724;23.250;2022-08-19T03:48:55;94501.00;;;20.56;100.00
15050;BME280;7622;42.724;23.250;2022-08-19T03:51:25;94507.56;;;20.92;100.00
15050;BME280;7622;42.724;23.250;2022-08-19T03:53:54;94505.78;;;21.23;100.00
15050;BME280;7622;42.724;23.250;2022-08-19T03:56:22;94503.69;;;21.64;100.00
15050;BME280;7622;42.724;23.250;2022-08-19T03:58:51;94509.38;;;21.92;100.00
15050;BME280;7622;42.724;23.250;2022-08-19T04:01:21;94513.03;;;21.91;100.00
15050;BME280;7622;42.724;23.250;2022-08-19T04:03:49;94510.88;;;22.06;100.00
15050;BME280;7622;42.724;23.250;2022-08-19T04:06:18;94514.13;;;22.08;100.00
15050;BME280;7622;42.724;23.250;2022-08-19T04:08:47;94517.25;;;22.23;100.00
15050;BME280;7622;42.724;23.250;2022-08-19T04:11:19;94518.41;;;22.27;100.00
15050;BME280;7622;42.724;23.250;2022-08-19T04:13:46;94508.00;;;22.51;100.00
15050;BME280;7622;42.724;23.250;2022-08-19T04:16:14;94513.66;;;22.54;100.00
15050;BME280;7622;42.724;23.250;2022-08-19T04:18:41;94526.03;;;22.60;100.00
15050;BME280;7622;42.724;23.250;2022-08-19T04:21:08;94521.56;;;22.79;100.00
15050;BME280;7622;42.724;23.250;2022-08-19T04:23:41;94526.78;;;22.86;100.00
15050;BME280;7622;42.724;23.250;2022-08-19T04:26:12;94512.34;;;23.00;100.00
15050;BME280;7622;42.724;23.250;2022-08-19T04:28:41;94522.97;;;23.30;100.00
15050;BME280;7622;42.724;23.250;2022-08-19T04:31:12;94521.03;;;23.37;100.00
15050;BME280;7622;42.724;23.250;2022-08-19T04:33:39;94524.56;;;23.49;100.00
15050;BME280;7622;42.724;23.250;2022-08-19T04:36:07;94521.50;;;23.75;100.00
15050;BME280;7622;42.724;23.250;2022-08-19T04:38:35;94533.75;;;24.00;100.00
15050;BME280;7622;42.724;23.250;2022-08-19T04:41:03;94530.38;;;23.69;100.00
15050;BME280;7622;42.724;23.250;2022-08-19T04:43:48;94534.91;;;23.21;100.00
15050;BME280;7622;42.724;23.250;2022-08-19T04:46:16;94538.16;;;23.23;100.00
15050;BME280;7622;42.724;23.250;2022-08-19T04:48:45;94528.69;;;23.27;100.00
15050;BME280;7622;42.724;23.250;2022-08-19T04:51:12;94531.28;;;23.45;100.00
15050;BME280;7622;42.724;23.250;2022-08-19T04:53:41;94529.56;;;23.80;100.00
15050;BME280;7622;42.724;23.250;2022-08-19T04:56:09;94530.06;;;23.77;100.00
15050;BME280;7622;42.724;23.250;2022-08-19T04:58:38;94532.88;;;24.52;100.00
15050;BME280;7622;42.724;23.250;2022-08-19T05:01:06;94532.06;;;24.63;100.00
15050;BME280;7622;42.724;23.250;2022-08-19T05:03:35;94539.19;;;24.86;100.00
15050;BME280;7622;42.724;23.250;2022-08-19T05:06:04;94513.63;;;24.97;100.00
15050;BME280;7622;42.724;23.250;2022-08-19T05:08:34;94534.91;;;25.37;100.00
15050;BME280;7622;42.724;23.250;2022-08-19T05:11:07;94519.13;;;25.47;100.00
15050;BME280;7622;42.724;23.250;2022-08-19T05:13:35;94545.06;;;25.40;100.00
15050;BME280;7622;42.724;23.250;2022-08-19T05:16:02;94545.00;;;25.63;100.00
15050;BME280;7622;42.724;23.250;2022-08-19T05:18:30;94543.88;;;25.76;100.00
15050;BME280;7622;42.724;23.250;2022-08-19T05:21:18;94544.19;;;25.79;100.00
15050;BME280;7622;42.724;23.250;2022-08-19T05:24:03;94540.81;;;26.01;99.36
15050;BME280;7622;42.724;23.250;2022-08-19T05:26:33;94545.53;;;26.10;99.06
15050;BME280;7622;42.724;23.250;2022-08-19T05:29:00;94556.34;;;26.20;98.37
15050;BME280;7622;42.724;23.250;2022-08-19T05:31:27;94543.19;;;26.31;98.54
15050;BME280;7622;42.724;23.250;2022-08-19T05:33:55;94551.03;;;26.20;98.39
15050;BME280;7622;42.724;23.250;2022-08-19T05:36:23;94530.66;;;26.14;98.14
15050;BME280;7622;42.724;23.250;2022-08-19T05:38:50;94550.19;;;26.03;98.86
15050;BME280;7622;42.724;23.250;2022-08-19T05:41:19;94551.19;;;26.31;99.00
15050;BME280;7622;42.724;23.250;2022-08-19T05:43:46;94541.97;;;26.55;97.12
15050;BME280;7622;42.724;23.250;2022-08-19T05:46:17;94553.22;;;26.79;96.43
15050;BME280;7622;42.724;23.250;2022-08-19T05:48:44;94549.31;;;26.86;92.95
15050;BME280;7622;42.724;23.250;2022-08-19T05:51:12;94544.47;;;27.22;89.78
15050;BME280;7622;42.724;23.250;2022-08-19T05:53:39;94547.13;;;27.22;89.19
15050;BME280;7622;42.724;23.250;2022-08-19T05:56:07;94549.59;;;27.28;87.63
15050;BME280;7622;42.724;23.250;2022-08-19T05:58:35;94543.88;;;27.63;84.95
15050;BME280;7622;42.724;23.250;2022-08-19T06:01:03;94542.63;;;27.49;86.37
15050;BME280;7622;42.724;23.250;2022-08-19T06:03:32;94541.91;;;27.32;88.03
15050;BME280;7622;42.724;23.250;2022-08-19T06:05:59;94544.03;;;27.30;87.93
15050;BME280;7622;42.724;23.250;2022-08-19T06:08:29;94550.84;;;27.64;84.87
15050;BME280;7622;42.724;23.250;2022-08-19T06:10:56;94545.84;;;27.24;84.21
15050;BME280;7622;42.724;23.250;2022-08-19T06:13:23;94550.75;;;27.59;83.43
15050;BME280;7622;42.724;23.250;2022-08-19T06:15:51;94550.72;;;27.81;81.43
15050;BME280;7622;42.724;23.250;2022-08-19T06:18:17;94547.91;;;27.93;80.05
15050;BME280;7622;42.724;23.250;2022-08-19T06:20:44;94553.00;;;28.26;78.98
15050;BME280;7622;42.724;23.250;2022-08-19T06:23:11;94547.00;;;28.46;78.37
15050;BME280;7622;42.724;23.250;2022-08-19T06:25:40;94544.16;;;28.20;80.24
15050;BME280;7622;42.724;23.250;2022-08-19T06:28:07;94552.38;;;28.51;78.56
15050;BME280;7622;42.724;23.250;2022-08-19T06:30:33;94550.97;;;28.75;77.44
15050;BME280;7622;42.724;23.250;2022-08-19T06:33:00;94553.63;;;29.27;75.26
15050;BME280;7622;42.724;23.250;2022-08-19T06:35:27;94554.56;;;29.58;71.88
15050;BME280;7622;42.724;23.250;2022-08-19T06:37:54;94555.03;;;28.83;75.15
15050;BME280;7622;42.724;23.250;2022-08-19T06:40:21;94553.56;;;29.12;73.79
15050;BME280;7622;42.724;23.250;2022-08-19T06:42:50;94549.88;;;29.28;72.99
15050;BME280;7622;42.724;23.250;2022-08-19T06:45:18;94545.56;;;29.17;72.48
15050;BME280;7622;42.724;23.250;2022-08-19T06:47:45;94551.25;;;29.31;71.66
15050;BME280;7622;42.724;23.250;2022-08-19T06:50:13;94545.16;;;29.51;69.88
15050;BME280;7622;42.724;23.250;2022-08-19T06:52:40;94548.44;;;29.78;69.06
15050;BME280;7622;42.724;23.250;2022-08-19T06:55:07;94544.69;;;29.89;68.82
15050;BME280;7622;42.724;23.250;2022-08-19T06:57:35;94552.81;;;30.35;66.22
15050;BME280;7622;42.724;23.250;2022-08-19T07:00:05;94561.91;;;30.34;64.90
15050;BME280;7622;42.724;23.250;2022-08-19T07:02:35;94558.16;;;30.30;65.34
15050;BME280;7622;42.724;23.250;2022-08-19T07:05:03;94554.97;;;30.63;63.50
15050;BME280;7622;42.724;23.250;2022-08-19T07:07:30;94564.03;;;30.11;66.71
15050;BME280;7622;42.724;23.250;2022-08-19T07:09:58;94563.53;;;30.55;63.55
15050;BME280;7622;42.724;23.250;2022-08-19T07:12:26;94564.56;;;30.89;61.88
15050;BME280;7622;42.724;23.250;2022-08-19T07:14:53;94565.88;;;31.07;61.38
15050;BME280;7622;42.724;23.250;2022-08-19T07:17:21;94560.28;;;30.73;62.71
15050;BME280;7622;42.724;23.250;2022-08-19T07:19:48;94565.13;;;30.76;63.79
15050;BME280;7622;42.724;23.250;2022-08-19T07:22:15;94560.25;;;30.93;61.69
15050;BME280;7622;42.724;23.250;2022-08-19T07:24:43;94562.25;;;31.42;60.58
15050;BME280;7622;42.724;23.250;2022-08-19T07:27:10;94560.81;;;31.65;59.41
15050;BME280;7622;42.724;23.250;2022-08-19T07:29:37;94552.41;;;31.77;58.72
15050;BME280;7622;42.724;23.250;2022-08-19T07:32:04;94553.09;;;31.97;57.67
15050;BME280;7622;42.724;23.250;2022-08-19T07:34:33;94555.56;;;31.89;56.64
15050;BME280;7622;42.724;23.250;2022-08-19T07:37:03;94553.25;;;32.11;56.82
15050;BME280;7622;42.724;23.250;2022-08-19T07:39:31;94551.38;;;32.12;55.74
15050;BME280;7622;42.724;23.250;2022-08-19T07:42:01;94542.63;;;32.35;55.61
15050;BME280;7622;42.724;23.250;2022-08-19T07:44:27;94547.50;;;32.62;54.11
15050;BME280;7622;42.724;23.250;2022-08-19T07:46:56;94546.91;;;32.65;54.45
15050;BME280;7622;42.724;23.250;2022-08-19T07:49:24;94547.38;;;32.77;53.13
15050;BME280;7622;42.724;23.250;2022-08-19T07:51:55;94526.34;;;32.79;52.66
15050;BME280;7622;42.724;23.250;2022-08-19T07:54:24;94549.72;;;33.07;51.50
15050;BME280;7622;42.724;23.250;2022-08-19T07:56:52;94553.75;;;33.34;49.91
15050;BME280;7622;42.724;23.250;2022-08-19T07:59:19;94563.88;;;33.47;49.47
15050;BME280;7622;42.724;23.250;2022-08-19T08:01:47;94548.72;;;33.51;48.97
15050;BME280;7622;42.724;23.250;2022-08-19T08:04:15;94556.56;;;33.71;48.85
15050;BME280;7622;42.724;23.250;2022-08-19T08:07:01;94553.28;;;33.74;48.76
15050;BME280;7622;42.724;23.250;2022-08-19T08:09:46;94556.75;;;34.31;47.62
15050;BME280;7622;42.724;23.250;2022-08-19T08:12:15;94548.59;;;34.36;47.28
15050;BME280;7622;42.724;23.250;2022-08-19T08:14:44;94557.13;;;34.43;46.55
15050;BME280;7622;42.724;23.250;2022-08-19T08:17:15;94547.00;;;33.97;47.16
15050;BME280;7622;42.724;23.250;2022-08-19T08:19:42;94540.38;;;34.27;46.41
15050;BME280;7622;42.724;23.250;2022-08-19T08:22:14;94542.25;;;34.59;45.35
15050;BME280;7622;42.724;23.250;2022-08-19T08:25:11;94538.03;;;35.13;45.20
15050;BME280;7622;42.724;23.250;2022-08-19T08:27:41;94541.44;;;34.78;44.58
15050;BME280;7622;42.724;23.250;2022-08-19T08:30:09;94535.34;;;34.53;45.13
15050;BME280;7622;42.724;23.250;2022-08-19T08:32:37;94540.75;;;35.13;43.56
15050;BME280;7622;42.724;23.250;2022-08-19T08:35:05;94528.81;;;35.82;42.38
15050;BME280;7622;42.724;23.250;2022-08-19T08:37:34;94529.13;;;35.81;42.93
15050;BME280;7622;42.724;23.250;2022-08-19T08:40:03;94533.53;;;36.13;42.17
15050;BME280;7622;42.724;23.250;2022-08-19T08:42:34;94531.53;;;36.18;41.87
15050;BME280;7622;42.724;23.250;2022-08-19T08:45:08;94529.19;;;36.48;40.87
15050;BME280;7622;42.724;23.250;2022-08-19T08:47:39;94531.00;;;36.61;39.85
15050;BME280;7622;42.724;23.250;2022-08-19T08:50:13;94537.28;;;36.92;39.56
15050;BME280;7622;42.724;23.250;2022-08-19T08:52:45;94528.22;;;36.44;40.32
15050;BME280;7622;42.724;23.250;2022-08-19T08:55:15;94522.47;;;36.45;39.72
15050;BME280;7622;42.724;23.250;2022-08-19T08:57:52;94523.50;;;36.80;37.42
15050;BME280;7622;42.724;23.250;2022-08-19T09:00:24;94521.03;;;36.92;38.14
15050;BME280;7622;42.724;23.250;2022-08-19T09:02:52;94524.47;;;37.15;37.21
15050;BME280;7622;42.724;23.250;2022-08-19T09:05:19;94525.75;;;37.18;37.09
15050;BME280;7622;42.724;23.250;2022-08-19T09:07:53;94512.56;;;37.25;35.53
15050;BME280;7622;42.724;23.250;2022-08-19T09:10:29;94523.94;;;37.53;34.30
15050;BME280;7622;42.724;23.250;2022-08-19T09:13:05;94517.97;;;37.25;34.76
15050;BME280;7622;42.724;23.250;2022-08-19T09:15:38;94508.63;;;37.48;34.71
15050;BME280;7622;42.724;23.250;2022-08-19T09:18:08;94505.66;;;37.93;33.75
15050;BME280;7622;42.724;23.250;2022-08-19T09:20:35;94503.75;;;38.19;32.74
15050;BME280;7622;42.724;23.250;2022-08-19T09:23:03;94506.84;;;38.81;32.16
15050;BME280;7622;42.724;23.250;2022-08-19T09:25:30;94500.91;;;38.88;32.39
15050;BME280;7622;42.724;23.250;2022-08-19T09:28:00;94498.06;;;38.84;31.51
15050;BME280;7622;42.724;23.250;2022-08-19T09:30:29;94463.03;;;38.28;31.14
15050;BME280;7622;42.724;23.250;2022-08-19T09:32:57;94500.91;;;38.88;31.42
15050;BME280;7622;42.724;23.250;2022-08-19T09:35:26;94491.13;;;38.57;30.98
15050;BME280;7622;42.724;23.250;2022-08-19T09:37:54;94494.03;;;38.18;31.42
15050;BME280;7622;42.724;23.250;2022-08-19T09:40:23;94489.38;;;37.93;31.48
15050;BME280;7622;42.724;23.250;2022-08-19T09:42:51;94489.09;;;36.58;33.17
15050;BME280;7622;42.724;23.250;2022-08-19T09:45:20;94478.09;;;37.17;32.30
15050;BME280;7622;42.724;23.250;2022-08-19T09:47:48;94476.56;;;37.50;32.12
15050;BME280;7622;42.724;23.250;2022-08-19T09:50:16;94480.31;;;38.14;31.80
15050;BME280;7622;42.724;23.250;2022-08-19T09:52:43;94475.69;;;38.15;31.97
15050;BME280;7622;42.724;23.250;2022-08-19T09:55:11;94461.94;;;38.20;31.85
15050;BME280;7622;42.724;23.250;2022-08-19T09:57:39;94478.47;;;38.61;31.25
15050;BME280;7622;42.724;23.250;2022-08-19T10:00:08;94475.94;;;38.39;30.91
15050;BME280;7622;42.724;23.250;2022-08-19T10:02:35;94465.44;;;38.29;30.50
15050;BME280;7622;42.724;23.250;2022-08-19T10:05:03;94464.81;;;38.06;30.46
15050;BME280;7622;42.724;23.250;2022-08-19T10:07:47;94472.63;;;38.51;30.78
15050;BME280;7622;42.724;23.250;2022-08-19T10:10:14;94456.78;;;38.44;30.11
15050;BME280;7622;42.724;23.250;2022-08-19T10:12:42;94456.91;;;38.65;30.00
15050;BME280;7622;42.724;23.250;2022-08-19T10:15:12;94459.22;;;38.84;29.68
15050;BME280;7622;42.724;23.250;2022-08-19T10:17:40;94441.81;;;38.21;29.71
15050;BME280;7622;42.724;23.250;2022-08-19T10:20:07;94458.53;;;38.40;29.82
15050;BME280;7622;42.724;23.250;2022-08-19T10:22:34;94455.22;;;38.26;30.76
15050;BME280;7622;42.724;23.250;2022-08-19T10:25:04;94465.56;;;38.58;29.99
15050;BME280;7622;42.724;23.250;2022-08-19T10:27:31;94453.91;;;38.58;30.36
15050;BME280;7622;42.724;23.250;2022-08-19T10:29:59;94461.88;;;38.54;30.16
15050;BME280;7622;42.724;23.250;2022-08-19T10:32:26;94448.50;;;38.49;29.92
15050;BME280;7622;42.724;23.250;2022-08-19T10:34:54;94453.84;;;38.67;29.93
15050;BME280;7622;42.724;23.250;2022-08-19T10:37:21;94448.00;;;38.94;29.60
15050;BME280;7622;42.724;23.250;2022-08-19T10:39:48;94444.34;;;38.35;30.55
15050;BME280;7622;42.724;23.250;2022-08-19T10:42:15;94441.81;;;38.21;30.48
15050;BME280;7622;42.724;23.250;2022-08-19T10:44:44;94440.53;;;37.84;30.82
15050;BME280;7622;42.724;23.250;2022-08-19T10:47:13;94440.38;;;37.63;31.11
15050;BME280;7622;42.724;23.250;2022-08-19T10:49:40;94435.63;;;37.60;31.75
15050;BME280;7622;42.724;23.250;2022-08-19T10:52:21;94438.41;;;37.12;33.67
15050;BME280;7622;42.724;23.250;2022-08-19T10:55:00;94437.16;;;37.44;33.23
15050;BME280;7622;42.724;23.250;2022-08-19T10:57:44;94430.63;;;37.45;32.26
15050;BME280;7622;42.724;23.250;2022-08-19T11:00:11;94428.06;;;37.57;31.25
15050;BME280;7622;42.724;23.250;2022-08-19T11:02:40;94419.81;;;38.14;31.51
15050;BME280;7622;42.724;23.250;2022-08-19T11:05:08;94429.28;;;38.54;31.07
15050;BME280;7622;42.724;23.250;2022-08-19T11:07:37;94430.81;;;38.73;31.32
15050;BME280;7622;42.724;23.250;2022-08-19T11:10:05;94436.03;;;38.31;31.73
15050;BME280;7622;42.724;23.250;2022-08-19T11:12:32;94428.38;;;38.50;31.86
15050;BME280;7622;42.724;23.250;2022-08-19T11:14:59;94414.06;;;37.72;31.60
15050;BME280;7622;42.724;23.250;2022-08-19T11:17:26;94416.41;;;37.22;32.29
15050;BME280;7622;42.724;23.250;2022-08-19T11:19:56;94410.69;;;37.41;32.33
15050;BME280;7622;42.724;23.250;2022-08-19T11:22:23;94401.28;;;37.30;32.07
15050;BME280;7622;42.724;23.250;2022-08-19T11:24:49;94417.38;;;37.18;32.33
15050;BME280;7622;42.724;23.250;2022-08-19T11:27:16;94399.72;;;37.63;32.01
15050;BME280;7622;42.724;23.250;2022-08-19T11:29:43;94412.78;;;38.13;31.71
15050;BME280;7622;42.724;23.250;2022-08-19T11:32:10;94405.41;;;38.22;31.14
15050;BME280;7622;42.724;23.250;2022-08-19T11:34:38;94396.75;;;38.37;31.23
15050;BME280;7622;42.724;23.250;2022-08-19T11:37:07;94404.66;;;38.59;31.11
15050;BME280;7622;42.724;23.250;2022-08-19T11:39:35;94394.84;;;38.29;31.58
15050;BME280;7622;42.724;23.250;2022-08-19T11:42:04;94394.44;;;37.93;31.55
15050;BME280;7622;42.724;23.250;2022-08-19T11:44:51;94389.19;;;36.71;32.68
15050;BME280;7622;42.724;23.250;2022-08-19T11:47:19;94387.38;;;37.23;32.15
15050;BME280;7622;42.724;23.250;2022-08-19T11:49:46;94384.69;;;37.23;32.15
15050;BME280;7622;42.724;23.250;2022-08-19T11:52:14;94387.00;;;36.90;31.87
15050;BME280;7622;42.724;23.250;2022-08-19T11:54:41;94388.06;;;36.72;32.58
15050;BME280;7622;42.724;23.250;2022-08-19T11:57:08;94385.66;;;36.70;32.52
15050;BME280;7622;42.724;23.250;2022-08-19T11:59:34;94382.09;;;36.61;33.23
15050;BME280;7622;42.724;23.250;2022-08-19T12:02:01;94363.97;;;36.00;33.46
15050;BME280;7622;42.724;23.250;2022-08-19T12:04:28;94356.41;;;35.66;33.80
15050;BME280;7622;42.724;23.250;2022-08-19T12:06:55;94366.91;;;35.67;33.82
15050;BME280;7622;42.724;23.250;2022-08-19T12:09:23;94364.41;;;35.71;33.60
15050;BME280;7622;42.724;23.250;2022-08-19T12:11:50;94355.25;;;36.11;33.82
15050;BME280;7622;42.724;23.250;2022-08-19T12:14:17;94354.63;;;36.45;33.04
15050;BME280;7622;42.724;23.250;2022-08-19T12:16:44;94354.91;;;36.66;33.34
15050;BME280;7622;42.724;23.250;2022-08-19T12:19:12;94346.97;;;36.78;33.21
15050;BME280;7622;42.724;23.250;2022-08-19T12:21:38;94341.22;;;36.71;33.47
15050;BME280;7622;42.724;23.250;2022-08-19T12:24:06;94348.41;;;36.36;33.78
15050;BME280;7622;42.724;23.250;2022-08-19T12:26:35;94337.81;;;35.86;33.56
15050;BME280;7622;42.724;23.250;2022-08-19T12:29:02;94338.69;;;35.73;33.82
15050;BME280;7622;42.724;23.250;2022-08-19T12:31:29;94333.31;;;35.82;33.91
15050;BME280;7622;42.724;23.250;2022-08-19T12:33:56;94335.16;;;36.26;33.38
15050;BME280;7622;42.724;23.250;2022-08-19T12:36:24;94327.44;;;36.59;33.18
15050;BME280;7622;42.724;23.250;2022-08-19T12:38:52;94327.00;;;36.57;32.73
15050;BME280;7622;42.724;23.250;2022-08-19T12:41:19;94339.41;;;36.18;33.66
15050;BME280;7622;42.724;23.250;2022-08-19T12:43:49;94326.41;;;35.98;33.72
15050;BME280;7622;42.724;23.250;2022-08-19T12:46:17;94315.56;;;36.20;33.76
15050;BME280;7622;42.724;23.250;2022-08-19T12:48:44;94325.66;;;36.37;33.04
15050;BME280;7622;42.724;23.250;2022-08-19T12:51:13;94316.84;;;36.31;33.26
15050;BME280;7622;42.724;23.250;2022-08-19T12:53:42;94317.50;;;35.75;34.32
15050;BME280;7622;42.724;23.250;2022-08-19T12:56:10;94315.00;;;35.57;33.95
15050;BME280;7622;42.724;23.250;2022-08-19T12:58:40;94311.84;;;35.85;33.71
15050;BME280;7622;42.724;23.250;2022-08-19T13:01:10;94309.66;;;35.96;34.57
15050;BME280;7622;42.724;23.250;2022-08-19T13:03:37;94304.88;;;36.24;34.72